sensor_id;sensor_type;location;lat;lon;timestamp;P1;durP1;ratioP1;P2;durP2;ratioP2
63534;SDS011;55128;50.230;18.944;2023-05-10T00:02:17;8.83;;;6.13;;
63534;SDS011;55128;50.230;18.944;2023-05-10T00:07:17;9.32;;;6.22;;
63534;SDS011;55128;50.230;18.944;2023-05-10T00:12:18;9.43;;;6.00;;
63534;SDS011;55128;50.230;18.944;2023-05-10T00:17:18;10.87;;;6.40;;
63534;SDS011;55128;50.230;18.944;2023-05-10T00:22:18;11.33;;;6.93;;
63534;SDS011;55128;50.230;18.944;2023-05-10T00:27:19;8.90;;;6.60;;
63534;SDS011;55128;50.230;18.944;2023-05-10T00:32:19;12.98;;;7.80;;
63534;SDS011;55128;50.230;18.944;2023-05-10T00:37:20;10.30;;;7.47;;
63534;SDS011;55128;50.230;18.944;2023-05-10T00:42:20;12.90;;;6.40;;
63534;SDS011;55128;50.230;18.944;2023-05-10T00:47:21;18.43;;;10.37;;
63534;SDS011;55128;50.230;18.944;2023-05-10T00:52:21;13.80;;;8.82;;
63534;SDS011;55128;50.230;18.944;2023-05-10T00:57:23;14.55;;;10.38;;
63534;SDS011;55128;50.230;18.944;2023-05-10T01:02:24;12.20;;;9.10;;
63534;SDS011;55128;50.230;18.944;2023-05-10T01:07:25;20.52;;;10.20;;
63534;SDS011;55128;50.230;18.944;2023-05-10T01:12:25;16.30;;;10.23;;
63534;SDS011;55128;50.230;18.944;2023-05-10T01:17:26;12.55;;;8.07;;
63534;SDS011;55128;50.230;18.944;2023-05-10T01:28:22;26.08;;;12.00;;
63534;SDS011;55128;50.230;18.944;2023-05-10T01:38:51;18.33;;;9.15;;
63534;SDS011;55128;50.230;18.944;2023-05-10T01:44:04;18.73;;;9.45;;
63534;SDS011;55128;50.230;18.944;2023-05-10T01:49:25;22.10;;;14.05;;
63534;SDS011;55128;50.230;18.944;2023-05-10T01:54:29;19.48;;;9.57;;
63534;SDS011;55128;50.230;18.944;2023-05-10T01:59:33;22.40;;;14.75;;
63534;SDS011;55128;50.230;18.944;2023-05-10T02:04:39;16.10;;;9.63;;
63534;SDS011;55128;50.230;18.944;2023-05-10T02:09:43;14.23;;;9.25;;
63534;SDS011;55128;50.230;18.944;2023-05-10T02:14:47;16.30;;;10.38;;
63534;SDS011;55128;50.230;18.944;2023-05-10T02:19:50;11.70;;;6.78;;
63534;SDS011;55128;50.230;18.944;2023-05-10T02:24:54;12.68;;;6.97;;
63534;SDS011;55128;50.230;18.944;2023-05-10T02:29:56;8.65;;;6.30;;
63534;SDS011;55128;50.230;18.944;2023-05-10T02:34:57;9.30;;;6.85;;
63534;SDS011;55128;50.230;18.944;2023-05-10T02:40:00;13.25;;;10.15;;
63534;SDS011;55128;50.230;18.944;2023-05-10T02:45:07;9.15;;;5.85;;
63534;SDS011;55128;50.230;18.944;2023-05-10T02:50:11;12.40;;;9.38;;
63534;SDS011;55128;50.230;18.944;2023-05-10T02:55:12;9.02;;;6.35;;
63534;SDS011;55128;50.230;18.944;2023-05-10T03:00:16;9.63;;;6.70;;
63534;SDS011;55128;50.230;18.944;2023-05-10T03:05:16;12.30;;;9.15;;
63534;SDS011;55128;50.230;18.944;2023-05-10T03:10:17;15.15;;;7.60;;
63534;SDS011;55128;50.230;18.944;2023-05-10T03:20:57;12.70;;;8.55;;
63534;SDS011;55128;50.230;18.944;2023-05-10T03:26:02;10.73;;;6.60;;
63534;SDS011;55128;50.230;18.944;2023-05-10T03:31:04;12.60;;;8.55;;
63534;SDS011;55128;50.230;18.944;2023-05-10T03:36:06;13.18;;;7.25;;
63534;SDS011;55128;50.230;18.944;2023-05-10T03:41:06;13.35;;;11.02;;
63534;SDS011;55128;50.230;18.944;2023-05-10T03:46:07;13.05;;;8.32;;
63534;SDS011;55128;50.230;18.944;2023-05-10T03:51:07;13.23;;;8.55;;
63534;SDS011;55128;50.230;18.944;2023-05-10T03:56:07;15.43;;;9.35;;
63534;SDS011;55128;50.230;18.944;2023-05-10T04:01:08;13.20;;;8.23;;
63534;SDS011;55128;50.230;18.944;2023-05-10T04:06:08;11.27;;;7.90;;
63534;SDS011;55128;50.230;18.944;2023-05-10T04:11:11;17.48;;;10.43;;
63534;SDS011;55128;50.230;18.944;2023-05-10T04:16:12;11.38;;;7.57;;
63534;SDS011;55128;50.230;18.944;2023-05-10T04:21:13;15.75;;;8.68;;
63534;SDS011;55128;50.230;18.944;2023-05-10T04:26:13;11.18;;;8.20;;
63534;SDS011;55128;50.230;18.944;2023-05-10T04:31:14;11.90;;;9.00;;
63534;SDS011;55128;50.230;18.944;2023-05-10T04:36:14;10.88;;;7.65;;
63534;SDS011;55128;50.230;18.944;2023-05-10T04:41:15;11.15;;;7.43;;
63534;SDS011;55128;50.230;18.944;2023-05-10T04:46:15;10.57;;;6.47;;
63534;SDS011;55128;50.230;18.944;2023-05-10T04:51:15;13.45;;;6.65;;
63534;SDS011;55128;50.230;18.944;2023-05-10T04:56:16;12.85;;;7.10;;
63534;SDS011;55128;50.230;18.944;2023-05-10T05:01:16;10.02;;;6.18;;
63534;SDS011;55128;50.230;18.944;2023-05-10T05:06:17;11.30;;;5.72;;
63534;SDS011;55128;50.230;18.944;2023-05-10T05:11:17;8.30;;;5.22;;
63534;SDS011;55128;50.230;18.944;2023-05-10T05:16:18;9.73;;;5.35;;
63534;SDS011;55128;50.230;18.944;2023-05-10T05:21:19;7.60;;;4.73;;
63534;SDS011;55128;50.230;18.944;2023-05-10T05:26:20;7.40;;;5.20;;
63534;SDS011;55128;50.230;18.944;2023-05-10T05:31:20;8.03;;;5.13;;
63534;SDS011;55128;50.230;18.944;2023-05-10T05:36:20;8.15;;;4.28;;
63534;SDS011;55128;50.230;18.944;2023-05-10T05:41:21;7.70;;;3.72;;
63534;SDS011;55128;50.230;18.944;2023-05-10T05:46:22;7.80;;;4.20;;
63534;SDS011;55128;50.230;18.944;2023-05-10T05:51:22;5.18;;;3.55;;
63534;SDS011;55128;50.230;18.944;2023-05-10T05:56:23;6.03;;;3.67;;
63534;SDS011;55128;50.230;18.944;2023-05-10T06:01:26;8.73;;;3.92;;
63534;SDS011;55128;50.230;18.944;2023-05-10T06:06:26;6.73;;;3.37;;
63534;SDS011;55128;50.230;18.944;2023-05-10T06:11:27;4.78;;;3.30;;
63534;SDS011;55128;50.230;18.944;2023-05-10T06:16:28;4.90;;;3.13;;
63534;SDS011;55128;50.230;18.944;2023-05-10T06:21:28;4.97;;;3.30;;
63534;SDS011;55128;50.230;18.944;2023-05-10T06:26:29;6.07;;;3.30;;
63534;SDS011;55128;50.230;18.944;2023-05-10T06:31:29;5.50;;;3.60;;
63534;SDS011;55128;50.230;18.944;2023-05-10T06:36:29;4.97;;;3.60;;
63534;SDS011;55128;50.230;18.944;2023-05-10T06:41:30;5.30;;;2.97;;
63534;SDS011;55128;50.230;18.944;2023-05-10T06:46:30;4.00;;;2.50;;
63534;SDS011;55128;50.230;18.944;2023-05-10T06:51:31;4.80;;;3.00;;
63534;SDS011;55128;50.230;18.944;2023-05-10T06:56:31;3.15;;;2.65;;
63534;SDS011;55128;50.230;18.944;2023-05-10T07:01:31;3.75;;;2.70;;
63534;SDS011;55128;50.230;18.944;2023-05-10T07:06:32;3.28;;;2.58;;
63534;SDS011;55128;50.230;18.944;2023-05-10T07:11:33;6.90;;;2.33;;
63534;SDS011;55128;50.230;18.944;2023-05-10T07:16:33;5.60;;;2.63;;
63534;SDS011;55128;50.230;18.944;2023-05-10T07:21:34;3.40;;;2.72;;
63534;SDS011;55128;50.230;18.944;2023-05-10T07:26:35;4.07;;;3.13;;
63534;SDS011;55128;50.230;18.944;2023-05-10T07:31:35;3.72;;;2.42;;
63534;SDS011;55128;50.230;18.944;2023-05-10T07:36:36;4.07;;;2.58;;
63534;SDS011;55128;50.230;18.944;2023-05-10T07:41:36;3.97;;;2.43;;
63534;SDS011;55128;50.230;18.944;2023-05-10T07:46:37;3.58;;;1.80;;
63534;SDS011;55128;50.230;18.944;2023-05-10T07:51:38;4.55;;;2.08;;
63534;SDS011;55128;50.230;18.944;2023-05-10T07:56:38;3.40;;;1.73;;
63534;SDS011;55128;50.230;18.944;2023-05-10T08:01:39;2.90;;;1.80;;
63534;SDS011;55128;50.230;18.944;2023-05-10T08:06:40;4.45;;;1.85;;
63534;SDS011;55128;50.230;18.944;2023-05-10T08:11:40;3.33;;;1.80;;
63534;SDS011;55128;50.230;18.944;2023-05-10T08:16:40;3.00;;;1.77;;
63534;SDS011;55128;50.230;18.944;2023-05-10T08:21:41;3.20;;;1.77;;
63534;SDS011;55128;50.230;18.944;2023-05-10T08:26:42;3.67;;;1.77;;
63534;SDS011;55128;50.230;18.944;2023-05-10T08:31:42;3.40;;;1.70;;
63534;SDS011;55128;50.230;18.944;2023-05-10T08:36:43;3.10;;;2.00;;
63534;SDS011;55128;50.230;18.944;2023-05-10T08:41:43;3.60;;;2.03;;
63534;SDS011;55128;50.230;18.944;2023-05-10T08:46:45;4.13;;;2.00;;
63534;SDS011;55128;50.230;18.944;2023-05-10T08:51:50;4.45;;;2.10;;
63534;SDS011;55128;50.230;18.944;2023-05-10T08:56:54;4.22;;;2.47;;
63534;SDS011;55128;50.230;18.944;2023-05-10T09:01:58;4.85;;;2.15;;
63534;SDS011;55128;50.230;18.944;2023-05-10T09:06:59;3.33;;;1.95;;
63534;SDS011;55128;50.230;18.944;2023-05-10T09:12:01;2.78;;;1.98;;
63534;SDS011;55128;50.230;18.944;2023-05-10T09:17:01;3.65;;;2.55;;
63534;SDS011;55128;50.230;18.944;2023-05-10T09:22:02;4.10;;;2.10;;
63534;SDS011;55128;50.230;18.944;2023-05-10T09:27:02;2.73;;;1.80;;
63534;SDS011;55128;50.230;18.944;2023-05-10T09:32:03;2.53;;;1.70;;
63534;SDS011;55128;50.230;18.944;2023-05-10T09:37:03;4.40;;;1.75;;
63534;SDS011;55128;50.230;18.944;2023-05-10T09:42:05;4.55;;;2.25;;
63534;SDS011;55128;50.230;18.944;2023-05-10T09:47:07;4.60;;;3.67;;
63534;SDS011;55128;50.230;18.944;2023-05-10T09:52:08;4.63;;;2.80;;
63534;SDS011;55128;50.230;18.944;2023-05-10T09:57:10;4.33;;;2.37;;
63534;SDS011;55128;50.230;18.944;2023-05-10T10:02:19;3.03;;;2.00;;
63534;SDS011;55128;50.230;18.944;2023-05-10T10:07:22;2.40;;;1.90;;
63534;SDS011;55128;50.230;18.944;2023-05-10T10:12:24;2.72;;;1.98;;
63534;SDS011;55128;50.230;18.944;2023-05-10T10:17:25;3.15;;;2.35;;
63534;SDS011;55128;50.230;18.944;2023-05-10T10:22:27;2.70;;;1.83;;
63534;SDS011;55128;50.230;18.944;2023-05-10T10:38:03;4.35;;;1.80;;
63534;SDS011;55128;50.230;18.944;2023-05-10T10:43:23;3.00;;;1.95;;
63534;SDS011;55128;50.230;18.944;2023-05-10T10:48:25;3.05;;;2.10;;
63534;SDS011;55128;50.230;18.944;2023-05-10T10:53:26;3.83;;;1.80;;
63534;SDS011;55128;50.230;18.944;2023-05-10T10:58:29;4.57;;;2.20;;
63534;SDS011;55128;50.230;18.944;2023-05-10T11:03:33;2.72;;;1.90;;
63534;SDS011;55128;50.230;18.944;2023-05-10T11:08:35;3.20;;;1.83;;
63534;SDS011;55128;50.230;18.944;2023-05-10T11:13:46;2.97;;;1.85;;
63534;SDS011;55128;50.230;18.944;2023-05-10T11:18:59;5.68;;;2.40;;
63534;SDS011;55128;50.230;18.944;2023-05-10T11:24:09;3.97;;;1.95;;
63534;SDS011;55128;50.230;18.944;2023-05-10T11:29:13;3.67;;;1.92;;
63534;SDS011;55128;50.230;18.944;2023-05-10T11:34:23;2.90;;;2.10;;
63534;SDS011;55128;50.230;18.944;2023-05-10T11:39:30;2.40;;;2.00;;
63534;SDS011;55128;50.230;18.944;2023-05-10T11:44:32;2.30;;;1.92;;
63534;SDS011;55128;50.230;18.944;2023-05-10T11:49:32;7.05;;;2.60;;
63534;SDS011;55128;50.230;18.944;2023-05-10T11:54:33;3.05;;;1.80;;
63534;SDS011;55128;50.230;18.944;2023-05-10T11:59:34;3.17;;;2.22;;
63534;SDS011;55128;50.230;18.944;2023-05-10T12:04:36;4.03;;;1.77;;
63534;SDS011;55128;50.230;18.944;2023-05-10T12:09:37;2.60;;;1.70;;
63534;SDS011;55128;50.230;18.944;2023-05-10T12:14:43;3.45;;;2.05;;
63534;SDS011;55128;50.230;18.944;2023-05-10T12:19:43;3.42;;;1.90;;
63534;SDS011;55128;50.230;18.944;2023-05-10T12:24:45;4.43;;;1.80;;
63534;SDS011;55128;50.230;18.944;2023-05-10T12:29:45;3.00;;;2.03;;
63534;SDS011;55128;50.230;18.944;2023-05-10T12:34:46;2.80;;;2.03;;
63534;SDS011;55128;50.230;18.944;2023-05-10T12:39:46;3.65;;;2.10;;
63534;SDS011;55128;50.230;18.944;2023-05-10T12:44:47;4.03;;;2.60;;
63534;SDS011;55128;50.230;18.944;2023-05-10T12:49:48;3.47;;;1.67;;
63534;SDS011;55128;50.230;18.944;2023-05-10T12:54:49;3.30;;;2.00;;
63534;SDS011;55128;50.230;18.944;2023-05-10T12:59:49;2.67;;;1.65;;
63534;SDS011;55128;50.230;18.944;2023-05-10T13:04:50;3.00;;;1.80;;
63534;SDS011;55128;50.230;18.944;2023-05-10T13:09:50;3.40;;;1.80;;
63534;SDS011;55128;50.230;18.944;2023-05-10T13:14:50;2.47;;;1.80;;
63534;SDS011;55128;50.230;18.944;2023-05-10T13:19:51;4.33;;;1.90;;
63534;SDS011;55128;50.230;18.944;2023-05-10T13:24:51;4.70;;;3.90;;
63534;SDS011;55128;50.230;18.944;2023-05-10T13:29:52;2.37;;;1.80;;
63534;SDS011;55128;50.230;18.944;2023-05-10T13:34:52;4.73;;;1.90;;
63534;SDS011;55128;50.230;18.944;2023-05-10T13:39:52;2.93;;;1.80;;
63534;SDS011;55128;50.230;18.944;2023-05-10T13:44:53;3.03;;;1.80;;
63534;SDS011;55128;50.230;18.944;2023-05-10T13:49:53;3.00;;;1.93;;
63534;SDS011;55128;50.230;18.944;2023-05-10T13:54:53;4.37;;;1.97;;
63534;SDS011;55128;50.230;18.944;2023-05-10T13:59:55;3.05;;;1.80;;
63534;SDS011;55128;50.230;18.944;2023-05-10T14:04:57;5.57;;;2.40;;
63534;SDS011;55128;50.230;18.944;2023-05-10T14:09:57;3.80;;;2.10;;
63534;SDS011;55128;50.230;18.944;2023-05-10T14:14:57;3.67;;;1.90;;
63534;SDS011;55128;50.230;18.944;2023-05-10T14:19:58;2.63;;;1.90;;
63534;SDS011;55128;50.230;18.944;2023-05-10T14:24:58;3.00;;;1.80;;
63534;SDS011;55128;50.230;18.944;2023-05-10T14:29:59;3.33;;;1.70;;
63534;SDS011;55128;50.230;18.944;2023-05-10T14:34:59;2.73;;;1.57;;
63534;SDS011;55128;50.230;18.944;2023-05-10T14:40:00;4.00;;;1.67;;
63534;SDS011;55128;50.230;18.944;2023-05-10T14:45:00;3.63;;;1.70;;
63534;SDS011;55128;50.230;18.944;2023-05-10T14:50:01;4.57;;;1.80;;
63534;SDS011;55128;50.230;18.944;2023-05-10T14:55:01;3.40;;;1.70;;
63534;SDS011;55128;50.230;18.944;2023-05-10T15:00:02;3.42;;;1.70;;
63534;SDS011;55128;50.230;18.944;2023-05-10T15:05:04;4.03;;;2.17;;
63534;SDS011;55128;50.230;18.944;2023-05-10T15:10:04;3.00;;;1.95;;
63534;SDS011;55128;50.230;18.944;2023-05-10T15:15:06;2.50;;;1.70;;
63534;SDS011;55128;50.230;18.944;2023-05-10T15:20:07;2.78;;;1.55;;
63534;SDS011;55128;50.230;18.944;2023-05-10T15:25:14;3.50;;;1.90;;
63534;SDS011;55128;50.230;18.944;2023-05-10T15:30:44;4.10;;;1.88;;
63534;SDS011;55128;50.230;18.944;2023-05-10T15:35:51;4.50;;;1.67;;
63534;SDS011;55128;50.230;18.944;2023-05-10T15:41:01;3.50;;;1.80;;
63534;SDS011;55128;50.230;18.944;2023-05-10T15:46:12;2.67;;;2.05;;
63534;SDS011;55128;50.230;18.944;2023-05-10T15:51:31;2.83;;;1.80;;
63534;SDS011;55128;50.230;18.944;2023-05-10T15:56:43;3.33;;;1.70;;
63534;SDS011;55128;50.230;18.944;2023-05-10T16:01:49;3.35;;;1.90;;
63534;SDS011;55128;50.230;18.944;2023-05-10T16:07:13;4.00;;;2.45;;
63534;SDS011;55128;50.230;18.944;2023-05-10T16:12:13;4.13;;;2.00;;
63534;SDS011;55128;50.230;18.944;2023-05-10T16:17:14;3.45;;;1.73;;
63534;SDS011;55128;50.230;18.944;2023-05-10T16:22:19;3.13;;;1.90;;
63534;SDS011;55128;50.230;18.944;2023-05-10T16:27:21;4.55;;;2.03;;
63534;SDS011;55128;50.230;18.944;2023-05-10T16:32:21;2.75;;;1.88;;
63534;SDS011;55128;50.230;18.944;2023-05-10T16:37:22;3.30;;;1.87;;
63534;SDS011;55128;50.230;18.944;2023-05-10T16:42:22;3.65;;;1.95;;
63534;SDS011;55128;50.230;18.944;2023-05-10T16:47:24;2.60;;;1.92;;
63534;SDS011;55128;50.230;18.944;2023-05-10T16:52:25;6.32;;;1.95;;
63534;SDS011;55128;50.230;18.944;2023-05-10T16:57:26;2.55;;;1.80;;
63534;SDS011;55128;50.230;18.944;2023-05-10T17:02:26;3.25;;;1.90;;
63534;SDS011;55128;50.230;18.944;2023-05-10T17:07:27;3.15;;;2.28;;
63534;SDS011;55128;50.230;18.944;2023-05-10T17:12:28;5.40;;;2.97;;
63534;SDS011;55128;50.230;18.944;2023-05-10T17:17:28;5.30;;;2.20;;
63534;SDS011;55128;50.230;18.944;2023-05-10T17:22:29;3.85;;;2.20;;
63534;SDS011;55128;50.230;18.944;2023-05-10T17:27:29;3.53;;;2.38;;
63534;SDS011;55128;50.230;18.944;2023-05-10T17:32:30;4.15;;;2.22;;
63534;SDS011;55128;50.230;18.944;2023-05-10T17:37:32;3.70;;;2.40;;
63534;SDS011;55128;50.230;18.944;2023-05-10T17:42:32;5.70;;;2.70;;
63534;SDS011;55128;50.230;18.944;2023-05-10T17:47:32;7.27;;;3.63;;
63534;SDS011;55128;50.230;18.944;2023-05-10T17:52:33;6.90;;;3.00;;
63534;SDS011;55128;50.230;18.944;2023-05-10T17:57:33;6.10;;;3.20;;
63534;SDS011;55128;50.230;18.944;2023-05-10T18:02:36;5.67;;;3.50;;
63534;SDS011;55128;50.230;18.944;2023-05-10T18:07:37;4.22;;;2.88;;
63534;SDS011;55128;50.230;18.944;2023-05-10T18:12:38;5.45;;;3.70;;
63534;SDS011;55128;50.230;18.944;2023-05-10T18:17:39;10.32;;;4.63;;
63534;SDS011;55128;50.230;18.944;2023-05-10T18:22:39;6.38;;;3.63;;
63534;SDS011;55128;50.230;18.944;2023-05-10T18:27:39;8.47;;;6.03;;
63534;SDS011;55128;50.230;18.944;2023-05-10T18:32:41;9.05;;;4.75;;
63534;SDS011;55128;50.230;18.944;2023-05-10T18:37:42;9.30;;;6.22;;
63534;SDS011;55128;50.230;18.944;2023-05-10T18:42:42;8.25;;;5.20;;
63534;SDS011;55128;50.230;18.944;2023-05-10T18:47:45;7.95;;;4.60;;
63534;SDS011;55128;50.230;18.944;2023-05-10T18:52:45;7.07;;;4.37;;
63534;SDS011;55128;50.230;18.944;2023-05-10T18:57:46;7.73;;;4.70;;
63534;SDS011;55128;50.230;18.944;2023-05-10T19:02:46;7.03;;;4.53;;
63534;SDS011;55128;50.230;18.944;2023-05-10T19:07:46;7.22;;;5.57;;
63534;SDS011;55128;50.230;18.944;2023-05-10T19:12:47;8.73;;;5.85;;
63534;SDS011;55128;50.230;18.944;2023-05-10T19:17:47;8.33;;;5.87;;
63534;SDS011;55128;50.230;18.944;2023-05-10T19:22:47;8.40;;;4.90;;
63534;SDS011;55128;50.230;18.944;2023-05-10T19:27:49;7.50;;;4.00;;
63534;SDS011;55128;50.230;18.944;2023-05-10T19:32:49;4.32;;;3.38;;
63534;SDS011;55128;50.230;18.944;2023-05-10T19:37:50;6.00;;;4.00;;
63534;SDS011;55128;50.230;18.944;2023-05-10T19:42:50;5.67;;;3.53;;
63534;SDS011;55128;50.230;18.944;2023-05-10T19:47:51;6.05;;;3.67;;
63534;SDS011;55128;50.230;18.944;2023-05-10T19:52:51;6.70;;;4.00;;
63534;SDS011;55128;50.230;18.944;2023-05-10T19:57:52;6.95;;;4.22;;
63534;SDS011;55128;50.230;18.944;2023-05-10T20:02:52;5.18;;;3.78;;
63534;SDS011;55128;50.230;18.944;2023-05-10T20:07:53;7.90;;;5.00;;
63534;SDS011;55128;50.230;18.944;2023-05-10T20:12:53;7.05;;;4.50;;
63534;SDS011;55128;50.230;18.944;2023-05-10T20:17:54;7.00;;;4.57;;
63534;SDS011;55128;50.230;18.944;2023-05-10T20:22:54;6.82;;;4.50;;
63534;SDS011;55128;50.230;18.944;2023-05-10T20:27:55;7.38;;;4.15;;
63534;SDS011;55128;50.230;18.944;2023-05-10T20:32:55;10.20;;;4.07;;
63534;SDS011;55128;50.230;18.944;2023-05-10T20:37:56;7.78;;;4.68;;
63534;SDS011;55128;50.230;18.944;2023-05-10T20:42:56;7.25;;;4.63;;
63534;SDS011;55128;50.230;18.944;2023-05-10T20:47:57;8.30;;;5.18;;
63534;SDS011;55128;50.230;18.944;2023-05-10T20:52:57;8.07;;;4.60;;
63534;SDS011;55128;50.230;18.944;2023-05-10T20:57:59;6.35;;;4.40;;
63534;SDS011;55128;50.230;18.944;2023-05-10T21:02:59;6.33;;;3.83;;
63534;SDS011;55128;50.230;18.944;2023-05-10T21:08:00;5.03;;;3.73;;
63534;SDS011;55128;50.230;18.944;2023-05-10T21:13:00;7.68;;;3.80;;
63534;SDS011;55128;50.230;18.944;2023-05-10T21:18:04;7.55;;;4.88;;
63534;SDS011;55128;50.230;18.944;2023-05-10T21:23:05;10.90;;;5.65;;
63534;SDS011;55128;50.230;18.944;2023-05-10T21:28:05;10.73;;;5.00;;
63534;SDS011;55128;50.230;18.944;2023-05-10T21:33:06;15.40;;;8.38;;
63534;SDS011;55128;50.230;18.944;2023-05-10T21:38:06;15.10;;;8.07;;
63534;SDS011;55128;50.230;18.944;2023-05-10T21:43:07;14.10;;;8.02;;
63534;SDS011;55128;50.230;18.944;2023-05-10T21:48:08;17.00;;;8.40;;
63534;SDS011;55128;50.230;18.944;2023-05-10T21:53:08;10.67;;;6.20;;
63534;SDS011;55128;50.230;18.944;2023-05-10T21:58:09;14.60;;;9.52;;
63534;SDS011;55128;50.230;18.944;2023-05-10T22:03:09;13.05;;;7.25;;
63534;SDS011;55128;50.230;18.944;2023-05-10T22:08:10;8.30;;;5.50;;
63534;SDS011;55128;50.230;18.944;2023-05-10T22:13:10;12.00;;;5.97;;
63534;SDS011;55128;50.230;18.944;2023-05-10T22:18:10;11.90;;;7.97;;
63534;SDS011;55128;50.230;18.944;2023-05-10T22:23:11;13.88;;;8.60;;
63534;SDS011;55128;50.230;18.944;2023-05-10T22:28:12;15.63;;;9.77;;
63534;SDS011;55128;50.230;18.944;2023-05-10T22:33:12;13.03;;;7.57;;
63534;SDS011;55128;50.230;18.944;2023-05-10T22:38:13;11.90;;;8.07;;
63534;SDS011;55128;50.230;18.944;2023-05-10T22:43:13;9.75;;;5.78;;
63534;SDS011;55128;50.230;18.944;2023-05-10T22:48:15;6.57;;;4.50;;
63534;SDS011;55128;50.230;18.944;2023-05-10T22:53:15;8.20;;;4.57;;
63534;SDS011;55128;50.230;18.944;2023-05-10T22:58:15;9.47;;;5.03;;
63534;SDS011;55128;50.230;18.944;2023-05-10T23:03:16;9.52;;;4.60;;
63534;SDS011;55128;50.230;18.944;2023-05-10T23:08:17;8.90;;;5.30;;
63534;SDS011;55128;50.230;18.944;2023-05-10T23:13:17;8.48;;;4.90;;
63534;SDS011;55128;50.230;18.944;2023-05-10T23:18:19;6.15;;;4.80;;
63534;SDS011;55128;50.230;18.944;2023-05-10T23:23:20;12.77;;;6.40;;
63534;SDS011;55128;50.230;18.944;2023-05-10T23:28:21;11.00;;;8.35;;
63534;SDS011;55128;50.230;18.944;2023-05-10T23:33:22;10.07;;;6.20;;
63534;SDS011;55128;50.230;18.944;2023-05-10T23:38:22;8.30;;;5.85;;
63534;SDS011;55128;50.230;18.944;2023-05-10T23:43:23;10.70;;;6.90;;
63534;SDS011;55128;50.230;18.944;2023-05-10T23:48:24;7.00;;;4.53;;
63534;SDS011;55128;50.230;18.944;2023-05-10T23:53:24;7.68;;;4.35;;
63534;SDS011;55128;50.230;18.944;2023-05-10T23:58:25;7.45;;;5.65;;
